Terminal Aerodrome Forecast
Issued by NWS Wilmington, OH

Current Version | Previous Version | Graphics & Text | Print | Product List | Glossary On
Versions: 1 2 3 4 5 6 7 8 9 10 11 12 13 14 15 16 17 18 19 20 21 22 23 24 25 26 27 28 29
000
FTUS41 KILN 281500 AAA
TAFCVG
TAF AMD
KCVG 281517Z 2815/2918 21010KT P6SM BKN080
     FM282300 19008KT P6SM SCT050
     FM291000 20012KT P6SM BKN040
     FM291500 21012G18KT P6SM OVC035=

USA.gov is the U.S. government's official web portal to all federal, state and local government web resources and services.